Terminal Aerodrome Forecast
Issued by NWS Buffalo, NY

Home | Current Version | Previous Version | Text Only | Print | Product List | Glossary On
Versions: 1 2 3 4 5 6 7 8 9 10 11 12 13 14 15 16 17 18 19 20 21 22 23 24
000
FTUS41 KBUF 310520
TAFROC
TAF
KROC 310520Z 3106/0106 07006KT P6SM SCT050 BKN100
     FM311300 09007KT P6SM OVC045
     FM311500 09008KT P6SM VCSH OVC035
     FM311800 07008KT 6SM -SHRA VCTS OVC040CB
     FM312100 07009KT P6SM VCSH OVC040
     FM010000 06007KT P6SM OVC040=

USA.gov is the U.S. government's official web portal to all federal, state and local government web resources and services.